sensor_id;sensor_type;location;lat;lon;timestamp;temperature;humidity
44215;DHT22;29884;47.450;19.124;2023-08-08T00:02:07;15.20;99.90
44215;DHT22;29884;47.450;19.124;2023-08-08T00:04:33;15.20;99.90
44215;DHT22;29884;47.450;19.124;2023-08-08T00:06:59;15.20;99.90
44215;DHT22;29884;47.450;19.124;2023-08-08T00:09:25;15.10;99.90
44215;DHT22;29884;47.450;19.124;2023-08-08T00:11:50;15.20;99.90
44215;DHT22;29884;47.450;19.124;2023-08-08T00:14:16;15.20;99.90
44215;DHT22;29884;47.450;19.124;2023-08-08T00:16:42;15.30;99.90
44215;DHT22;29884;47.450;19.124;2023-08-08T00:19:08;15.30;99.90
44215;DHT22;29884;47.450;19.124;2023-08-08T00:21:33;15.20;99.90
44215;DHT22;29884;47.450;19.124;2023-08-08T00:23:59;15.30;99.90
44215;DHT22;29884;47.450;19.124;2023-08-08T00:26:25;15.20;99.90
44215;DHT22;29884;47.450;19.124;2023-08-08T00:28:50;15.20;99.90
44215;DHT22;29884;47.450;19.124;2023-08-08T00:31:16;15.20;99.90
44215;DHT22;29884;47.450;19.124;2023-08-08T00:33:43;15.20;99.90
44215;DHT22;29884;47.450;19.124;2023-08-08T00:36:08;15.20;99.90
44215;DHT22;29884;47.450;19.124;2023-08-08T00:38:34;15.20;99.90
44215;DHT22;29884;47.450;19.124;2023-08-08T00:41:00;15.10;99.90
44215;DHT22;29884;47.450;19.124;2023-08-08T00:43:26;15.10;99.90
44215;DHT22;29884;47.450;19.124;2023-08-08T00:45:52;15.20;99.90
44215;DHT22;29884;47.450;19.124;2023-08-08T00:48:18;15.20;99.90
44215;DHT22;29884;47.450;19.124;2023-08-08T00:50:45;15.20;99.90
44215;DHT22;29884;47.450;19.124;2023-08-08T00:53:15;15.10;99.90
44215;DHT22;29884;47.450;19.124;2023-08-08T00:55:40;15.10;99.90
44215;DHT22;29884;47.450;19.124;2023-08-08T00:58:06;15.10;99.90
44215;DHT22;29884;47.450;19.124;2023-08-08T01:00:32;15.10;99.90
44215;DHT22;29884;47.450;19.124;2023-08-08T01:02:58;15.10;99.90
44215;DHT22;29884;47.450;19.124;2023-08-08T01:05:25;15.10;99.90
44215;DHT22;29884;47.450;19.124;2023-08-08T01:08:06;15.10;99.90
44215;DHT22;29884;47.450;19.124;2023-08-08T01:10:41;15.10;99.90
44215;DHT22;29884;47.450;19.124;2023-08-08T01:13:17;15.10;99.90
44215;DHT22;29884;47.450;19.124;2023-08-08T01:15:46;15.10;99.90
44215;DHT22;29884;47.450;19.124;2023-08-08T01:18:12;15.10;99.90
44215;DHT22;29884;47.450;19.124;2023-08-08T01:20:41;15.10;99.90
44215;DHT22;29884;47.450;19.124;2023-08-08T01:23:13;15.10;99.90
44215;DHT22;29884;47.450;19.124;2023-08-08T01:25:40;15.10;99.90
44215;DHT22;29884;47.450;19.124;2023-08-08T01:28:07;15.10;99.90
44215;DHT22;29884;47.450;19.124;2023-08-08T01:30:33;15.00;99.90
44215;DHT22;29884;47.450;19.124;2023-08-08T01:32:59;15.00;99.90
44215;DHT22;29884;47.450;19.124;2023-08-08T01:35:29;15.00;99.90
44215;DHT22;29884;47.450;19.124;2023-08-08T01:38:04;14.90;99.90
44215;DHT22;29884;47.450;19.124;2023-08-08T01:40:34;14.90;99.90
44215;DHT22;29884;47.450;19.124;2023-08-08T01:43:01;14.90;99.90
44215;DHT22;29884;47.450;19.124;2023-08-08T01:45:27;14.90;99.90
44215;DHT22;29884;47.450;19.124;2023-08-08T01:47:53;14.90;99.90
44215;DHT22;29884;47.450;19.124;2023-08-08T01:50:20;14.80;99.90
44215;DHT22;29884;47.450;19.124;2023-08-08T01:52:47;14.90;99.90
44215;DHT22;29884;47.450;19.124;2023-08-08T01:55:12;14.90;99.90
44215;DHT22;29884;47.450;19.124;2023-08-08T01:57:38;14.90;99.90
44215;DHT22;29884;47.450;19.124;2023-08-08T02:00:06;14.90;99.90
44215;DHT22;29884;47.450;19.124;2023-08-08T02:02:32;14.90;99.90
44215;DHT22;29884;47.450;19.124;2023-08-08T02:04:58;14.90;99.90
44215;DHT22;29884;47.450;19.124;2023-08-08T02:07:23;14.80;99.90
44215;DHT22;29884;47.450;19.124;2023-08-08T02:09:49;14.80;99.90
44215;DHT22;29884;47.450;19.124;2023-08-08T02:12:16;14.80;99.90
44215;DHT22;29884;47.450;19.124;2023-08-08T02:14:42;14.70;99.90
44215;DHT22;29884;47.450;19.124;2023-08-08T02:17:07;14.70;99.90
44215;DHT22;29884;47.450;19.124;2023-08-08T02:19:33;14.70;99.90
44215;DHT22;29884;47.450;19.124;2023-08-08T02:21:59;14.70;99.90
44215;DHT22;29884;47.450;19.124;2023-08-08T02:24:25;14.70;99.90
44215;DHT22;29884;47.450;19.124;2023-08-08T02:26:50;14.70;99.90
44215;DHT22;29884;47.450;19.124;2023-08-08T02:29:16;14.70;99.90
44215;DHT22;29884;47.450;19.124;2023-08-08T02:31:42;14.60;99.90
44215;DHT22;29884;47.450;19.124;2023-08-08T02:34:07;14.70;99.90
44215;DHT22;29884;47.450;19.124;2023-08-08T02:36:33;14.70;99.90
44215;DHT22;29884;47.450;19.124;2023-08-08T02:38:59;14.60;99.90
44215;DHT22;29884;47.450;19.124;2023-08-08T02:41:25;14.70;99.90
44215;DHT22;29884;47.450;19.124;2023-08-08T02:43:50;14.60;99.90
44215;DHT22;29884;47.450;19.124;2023-08-08T02:46:16;14.60;99.90
44215;DHT22;29884;47.450;19.124;2023-08-08T02:48:42;14.60;99.90
44215;DHT22;29884;47.450;19.124;2023-08-08T02:51:08;14.50;99.90
44215;DHT22;29884;47.450;19.124;2023-08-08T02:53:33;14.50;99.90
44215;DHT22;29884;47.450;19.124;2023-08-08T02:55:59;14.50;99.90
44215;DHT22;29884;47.450;19.124;2023-08-08T02:58:25;14.50;99.90
44215;DHT22;29884;47.450;19.124;2023-08-08T03:00:51;14.50;99.90
44215;DHT22;29884;47.450;19.124;2023-08-08T03:03:18;14.50;99.90
44215;DHT22;29884;47.450;19.124;2023-08-08T03:05:44;14.50;99.90
44215;DHT22;29884;47.450;19.124;2023-08-08T03:08:11;14.50;99.90
44215;DHT22;29884;47.450;19.124;2023-08-08T03:10:37;14.50;99.90
44215;DHT22;29884;47.450;19.124;2023-08-08T03:13:03;14.50;99.90
44215;DHT22;29884;47.450;19.124;2023-08-08T03:15:29;14.50;99.90
44215;DHT22;29884;47.450;19.124;2023-08-08T03:17:54;14.50;99.90
44215;DHT22;29884;47.450;19.124;2023-08-08T03:20:21;14.50;99.90
44215;DHT22;29884;47.450;19.124;2023-08-08T03:22:47;14.50;99.90
44215;DHT22;29884;47.450;19.124;2023-08-08T03:25:12;14.40;99.90
44215;DHT22;29884;47.450;19.124;2023-08-08T03:27:38;14.40;99.90
44215;DHT22;29884;47.450;19.124;2023-08-08T03:30:04;14.40;99.90
44215;DHT22;29884;47.450;19.124;2023-08-08T03:32:30;14.40;99.90
44215;DHT22;29884;47.450;19.124;2023-08-08T03:34:56;14.40;99.90
44215;DHT22;29884;47.450;19.124;2023-08-08T03:37:21;14.30;99.90
44215;DHT22;29884;47.450;19.124;2023-08-08T03:39:47;14.40;99.90
44215;DHT22;29884;47.450;19.124;2023-08-08T03:42:13;14.40;99.90
44215;DHT22;29884;47.450;19.124;2023-08-08T03:44:38;14.40;99.90
44215;DHT22;29884;47.450;19.124;2023-08-08T03:47:04;14.40;99.90
44215;DHT22;29884;47.450;19.124;2023-08-08T03:49:30;14.50;99.90
44215;DHT22;29884;47.450;19.124;2023-08-08T03:51:56;14.30;99.90
44215;DHT22;29884;47.450;19.124;2023-08-08T03:54:22;14.40;99.90
44215;DHT22;29884;47.450;19.124;2023-08-08T03:56:47;14.30;99.90
44215;DHT22;29884;47.450;19.124;2023-08-08T03:59:13;14.30;99.90
44215;DHT22;29884;47.450;19.124;2023-08-08T04:01:39;14.30;99.90
44215;DHT22;29884;47.450;19.124;2023-08-08T04:04:04;14.20;99.90
44215;DHT22;29884;47.450;19.124;2023-08-08T04:06:30;14.10;99.90
44215;DHT22;29884;47.450;19.124;2023-08-08T04:08:56;14.10;99.90
44215;DHT22;29884;47.450;19.124;2023-08-08T04:11:22;14.20;99.90
44215;DHT22;29884;47.450;19.124;2023-08-08T04:13:48;14.20;99.90
44215;DHT22;29884;47.450;19.124;2023-08-08T04:16:14;14.20;99.90
44215;DHT22;29884;47.450;19.124;2023-08-08T04:18:40;14.30;99.90
44215;DHT22;29884;47.450;19.124;2023-08-08T04:21:05;14.30;99.90
44215;DHT22;29884;47.450;19.124;2023-08-08T04:23:31;14.30;99.90
44215;DHT22;29884;47.450;19.124;2023-08-08T04:25:57;14.40;99.90
44215;DHT22;29884;47.450;19.124;2023-08-08T04:28:22;14.50;99.90
44215;DHT22;29884;47.450;19.124;2023-08-08T04:30:48;14.50;99.90
44215;DHT22;29884;47.450;19.124;2023-08-08T04:33:14;14.60;99.90
44215;DHT22;29884;47.450;19.124;2023-08-08T04:35:40;14.60;99.90
44215;DHT22;29884;47.450;19.124;2023-08-08T04:38:06;14.60;99.90
44215;DHT22;29884;47.450;19.124;2023-08-08T04:40:32;14.70;99.90
44215;DHT22;29884;47.450;19.124;2023-08-08T04:42:57;14.70;99.90
44215;DHT22;29884;47.450;19.124;2023-08-08T04:45:23;14.70;99.90
44215;DHT22;29884;47.450;19.124;2023-08-08T04:47:49;14.70;99.90
44215;DHT22;29884;47.450;19.124;2023-08-08T04:50:14;14.80;99.90
44215;DHT22;29884;47.450;19.124;2023-08-08T04:52:40;14.70;99.90
44215;DHT22;29884;47.450;19.124;2023-08-08T04:55:06;14.80;99.90
44215;DHT22;29884;47.450;19.124;2023-08-08T04:57:32;14.90;99.90
44215;DHT22;29884;47.450;19.124;2023-08-08T04:59:58;14.90;99.90
44215;DHT22;29884;47.450;19.124;2023-08-08T05:02:26;14.90;99.90
44215;DHT22;29884;47.450;19.124;2023-08-08T05:04:52;15.00;99.90
44215;DHT22;29884;47.450;19.124;2023-08-08T05:07:18;15.00;99.90
44215;DHT22;29884;47.450;19.124;2023-08-08T05:09:43;15.10;99.90
44215;DHT22;29884;47.450;19.124;2023-08-08T05:12:09;15.00;99.90
44215;DHT22;29884;47.450;19.124;2023-08-08T05:14:35;15.10;99.90
44215;DHT22;29884;47.450;19.124;2023-08-08T05:17:02;15.10;99.90
44215;DHT22;29884;47.450;19.124;2023-08-08T05:19:28;15.10;99.90
44215;DHT22;29884;47.450;19.124;2023-08-08T05:21:54;15.20;99.90
44215;DHT22;29884;47.450;19.124;2023-08-08T05:24:20;15.10;99.90
44215;DHT22;29884;47.450;19.124;2023-08-08T05:26:45;15.20;99.90
44215;DHT22;29884;47.450;19.124;2023-08-08T05:29:11;15.20;99.90
44215;DHT22;29884;47.450;19.124;2023-08-08T05:31:37;15.20;99.90
44215;DHT22;29884;47.450;19.124;2023-08-08T05:34:03;15.30;99.90
44215;DHT22;29884;47.450;19.124;2023-08-08T05:36:28;15.40;99.90
44215;DHT22;29884;47.450;19.124;2023-08-08T05:38:54;15.50;99.90
44215;DHT22;29884;47.450;19.124;2023-08-08T05:41:20;15.50;99.90
44215;DHT22;29884;47.450;19.124;2023-08-08T05:43:45;15.60;99.90
44215;DHT22;29884;47.450;19.124;2023-08-08T05:46:11;15.70;99.90
44215;DHT22;29884;47.450;19.124;2023-08-08T05:48:37;15.80;99.90
44215;DHT22;29884;47.450;19.124;2023-08-08T05:51:03;15.80;99.90
44215;DHT22;29884;47.450;19.124;2023-08-08T05:53:33;15.80;99.90
44215;DHT22;29884;47.450;19.124;2023-08-08T05:55:59;15.90;99.90
44215;DHT22;29884;47.450;19.124;2023-08-08T05:58:25;15.90;99.90
44215;DHT22;29884;47.450;19.124;2023-08-08T06:00:51;16.00;99.90
44215;DHT22;29884;47.450;19.124;2023-08-08T06:03:17;16.00;99.90
44215;DHT22;29884;47.450;19.124;2023-08-08T06:05:43;16.10;99.90
44215;DHT22;29884;47.450;19.124;2023-08-08T06:08:09;16.20;99.90
44215;DHT22;29884;47.450;19.124;2023-08-08T06:10:37;16.20;99.90
44215;DHT22;29884;47.450;19.124;2023-08-08T06:13:03;16.30;99.90
44215;DHT22;29884;47.450;19.124;2023-08-08T06:15:29;16.30;99.90
44215;DHT22;29884;47.450;19.124;2023-08-08T06:17:55;16.40;99.90
44215;DHT22;29884;47.450;19.124;2023-08-08T06:20:21;16.40;99.90
44215;DHT22;29884;47.450;19.124;2023-08-08T06:22:47;16.50;99.90
44215;DHT22;29884;47.450;19.124;2023-08-08T06:25:12;16.50;99.90
44215;DHT22;29884;47.450;19.124;2023-08-08T06:27:38;16.60;99.90
44215;DHT22;29884;47.450;19.124;2023-08-08T06:30:04;16.70;99.90
44215;DHT22;29884;47.450;19.124;2023-08-08T06:32:31;16.70;99.90
44215;DHT22;29884;47.450;19.124;2023-08-08T06:34:56;16.70;99.90
44215;DHT22;29884;47.450;19.124;2023-08-08T06:37:22;16.70;99.90
44215;DHT22;29884;47.450;19.124;2023-08-08T06:39:48;16.90;99.90
44215;DHT22;29884;47.450;19.124;2023-08-08T06:42:13;16.90;99.90
44215;DHT22;29884;47.450;19.124;2023-08-08T06:44:43;17.00;99.90
44215;DHT22;29884;47.450;19.124;2023-08-08T06:47:10;17.10;99.90
44215;DHT22;29884;47.450;19.124;2023-08-08T06:49:37;17.20;99.90
44215;DHT22;29884;47.450;19.124;2023-08-08T06:52:03;17.20;99.90
44215;DHT22;29884;47.450;19.124;2023-08-08T06:54:29;17.30;99.90
44215;DHT22;29884;47.450;19.124;2023-08-08T06:56:54;17.40;99.90
44215;DHT22;29884;47.450;19.124;2023-08-08T06:59:23;17.50;99.90
44215;DHT22;29884;47.450;19.124;2023-08-08T07:01:49;17.60;99.90
44215;DHT22;29884;47.450;19.124;2023-08-08T07:04:15;17.70;99.90
44215;DHT22;29884;47.450;19.124;2023-08-08T07:06:43;17.80;99.90
44215;DHT22;29884;47.450;19.124;2023-08-08T07:09:08;17.80;99.90
44215;DHT22;29884;47.450;19.124;2023-08-08T07:11:37;17.80;99.90
44215;DHT22;29884;47.450;19.124;2023-08-08T07:14:03;17.80;99.90
44215;DHT22;29884;47.450;19.124;2023-08-08T07:16:29;18.00;99.90
44215;DHT22;29884;47.450;19.124;2023-08-08T07:18:55;17.90;99.90
44215;DHT22;29884;47.450;19.124;2023-08-08T07:21:20;18.00;99.90
44215;DHT22;29884;47.450;19.124;2023-08-08T07:23:46;18.10;99.90
44215;DHT22;29884;47.450;19.124;2023-08-08T07:26:12;18.30;99.90
44215;DHT22;29884;47.450;19.124;2023-08-08T07:28:38;18.30;99.90
44215;DHT22;29884;47.450;19.124;2023-08-08T07:31:04;18.30;99.90
44215;DHT22;29884;47.450;19.124;2023-08-08T07:33:32;18.20;99.90
44215;DHT22;29884;47.450;19.124;2023-08-08T07:35:58;18.30;99.90
44215;DHT22;29884;47.450;19.124;2023-08-08T07:38:24;18.30;99.90
44215;DHT22;29884;47.450;19.124;2023-08-08T07:40:49;18.30;99.90
44215;DHT22;29884;47.450;19.124;2023-08-08T07:43:15;18.30;99.90
44215;DHT22;29884;47.450;19.124;2023-08-08T07:45:42;18.50;99.90
44215;DHT22;29884;47.450;19.124;2023-08-08T07:48:08;18.60;99.90
44215;DHT22;29884;47.450;19.124;2023-08-08T07:50:34;18.60;99.90
44215;DHT22;29884;47.450;19.124;2023-08-08T07:52:59;18.70;99.90
44215;DHT22;29884;47.450;19.124;2023-08-08T07:55:25;18.70;99.90
44215;DHT22;29884;47.450;19.124;2023-08-08T07:57:51;18.90;99.90
44215;DHT22;29884;47.450;19.124;2023-08-08T08:00:17;18.80;99.90
44215;DHT22;29884;47.450;19.124;2023-08-08T08:02:44;18.80;99.90
44215;DHT22;29884;47.450;19.124;2023-08-08T08:05:11;18.90;99.90
44215;DHT22;29884;47.450;19.124;2023-08-08T08:07:37;19.00;99.90
44215;DHT22;29884;47.450;19.124;2023-08-08T08:10:04;19.10;99.90
44215;DHT22;29884;47.450;19.124;2023-08-08T08:12:31;19.40;99.90
44215;DHT22;29884;47.450;19.124;2023-08-08T08:14:57;19.50;99.90
44215;DHT22;29884;47.450;19.124;2023-08-08T08:17:23;19.60;99.90
44215;DHT22;29884;47.450;19.124;2023-08-08T08:19:50;19.70;99.90
44215;DHT22;29884;47.450;19.124;2023-08-08T08:22:16;19.80;99.00
44215;DHT22;29884;47.450;19.124;2023-08-08T08:24:42;19.90;98.50
44215;DHT22;29884;47.450;19.124;2023-08-08T08:27:08;20.20;95.20
44215;DHT22;29884;47.450;19.124;2023-08-08T08:29:34;20.20;95.80
44215;DHT22;29884;47.450;19.124;2023-08-08T08:31:59;20.30;95.70
44215;DHT22;29884;47.450;19.124;2023-08-08T08:34:25;20.30;94.40
44215;DHT22;29884;47.450;19.124;2023-08-08T08:36:51;20.40;93.20
44215;DHT22;29884;47.450;19.124;2023-08-08T08:39:17;20.40;94.50
44215;DHT22;29884;47.450;19.124;2023-08-08T08:41:48;20.70;92.90
44215;DHT22;29884;47.450;19.124;2023-08-08T08:44:14;21.00;93.20
44215;DHT22;29884;47.450;19.124;2023-08-08T08:46:42;21.30;92.30
44215;DHT22;29884;47.450;19.124;2023-08-08T08:49:08;21.40;92.00
44215;DHT22;29884;47.450;19.124;2023-08-08T08:51:36;21.40;91.60
44215;DHT22;29884;47.450;19.124;2023-08-08T08:54:02;21.30;90.90
44215;DHT22;29884;47.450;19.124;2023-08-08T08:56:28;21.70;90.90
44215;DHT22;29884;47.450;19.124;2023-08-08T08:58:55;21.50;88.80
44215;DHT22;29884;47.450;19.124;2023-08-08T09:01:21;21.40;87.20
44215;DHT22;29884;47.450;19.124;2023-08-08T09:03:49;21.50;86.80
44215;DHT22;29884;47.450;19.124;2023-08-08T09:06:14;21.60;86.60
44215;DHT22;29884;47.450;19.124;2023-08-08T09:08:41;21.80;85.10
44215;DHT22;29884;47.450;19.124;2023-08-08T09:11:07;21.80;81.40
44215;DHT22;29884;47.450;19.124;2023-08-08T09:13:39;21.90;81.30
44215;DHT22;29884;47.450;19.124;2023-08-08T09:16:09;21.80;82.20
44215;DHT22;29884;47.450;19.124;2023-08-08T09:18:35;21.80;81.90
44215;DHT22;29884;47.450;19.124;2023-08-08T09:21:04;21.60;82.30
44215;DHT22;29884;47.450;19.124;2023-08-08T09:23:30;21.80;82.90
44215;DHT22;29884;47.450;19.124;2023-08-08T09:25:55;21.80;83.70
44215;DHT22;29884;47.450;19.124;2023-08-08T09:28:22;21.90;80.30
44215;DHT22;29884;47.450;19.124;2023-08-08T09:30:48;22.00;80.00
44215;DHT22;29884;47.450;19.124;2023-08-08T09:33:14;21.90;80.40
44215;DHT22;29884;47.450;19.124;2023-08-08T09:35:40;21.90;78.10
44215;DHT22;29884;47.450;19.124;2023-08-08T09:38:06;22.20;79.30
44215;DHT22;29884;47.450;19.124;2023-08-08T09:40:31;22.30;80.90
44215;DHT22;29884;47.450;19.124;2023-08-08T09:42:58;22.20;78.10
44215;DHT22;29884;47.450;19.124;2023-08-08T09:45:26;22.40;76.90
44215;DHT22;29884;47.450;19.124;2023-08-08T09:47:52;22.50;76.60
44215;DHT22;29884;47.450;19.124;2023-08-08T09:50:19;22.80;76.50
44215;DHT22;29884;47.450;19.124;2023-08-08T09:52:46;22.40;73.50
44215;DHT22;29884;47.450;19.124;2023-08-08T09:55:12;22.50;73.80
44215;DHT22;29884;47.450;19.124;2023-08-08T09:57:41;22.70;72.30
44215;DHT22;29884;47.450;19.124;2023-08-08T10:00:08;22.60;73.90
44215;DHT22;29884;47.450;19.124;2023-08-08T10:02:43;22.70;74.20
44215;DHT22;29884;47.450;19.124;2023-08-08T10:05:10;22.50;72.60
44215;DHT22;29884;47.450;19.124;2023-08-08T10:07:39;22.30;72.10
44215;DHT22;29884;47.450;19.124;2023-08-08T10:10:07;22.40;73.10
44215;DHT22;29884;47.450;19.124;2023-08-08T10:12:39;22.90;71.90
44215;DHT22;29884;47.450;19.124;2023-08-08T10:15:11;23.40;73.80
44215;DHT22;29884;47.450;19.124;2023-08-08T10:17:38;23.40;73.40
44215;DHT22;29884;47.450;19.124;2023-08-08T10:20:05;23.40;72.90
44215;DHT22;29884;47.450;19.124;2023-08-08T10:22:44;23.30;68.90
44215;DHT22;29884;47.450;19.124;2023-08-08T10:25:25;23.50;69.50
44215;DHT22;29884;47.450;19.124;2023-08-08T10:28:13;23.40;70.50
44215;DHT22;29884;47.450;19.124;2023-08-08T10:30:44;23.30;74.50
44215;DHT22;29884;47.450;19.124;2023-08-08T10:33:21;23.70;70.70
44215;DHT22;29884;47.450;19.124;2023-08-08T10:36:02;23.60;67.00
44215;DHT22;29884;47.450;19.124;2023-08-08T10:38:42;23.40;68.00
44215;DHT22;29884;47.450;19.124;2023-08-08T10:41:10;23.20;67.20
44215;DHT22;29884;47.450;19.124;2023-08-08T10:43:36;23.60;69.60
44215;DHT22;29884;47.450;19.124;2023-08-08T10:46:03;23.90;66.90
44215;DHT22;29884;47.450;19.124;2023-08-08T10:48:29;23.40;66.00
44215;DHT22;29884;47.450;19.124;2023-08-08T10:50:58;23.30;66.70
44215;DHT22;29884;47.450;19.124;2023-08-08T10:53:30;23.70;65.90
44215;DHT22;29884;47.450;19.124;2023-08-08T10:56:01;23.60;66.10
44215;DHT22;29884;47.450;19.124;2023-08-08T10:58:37;23.40;66.80
44215;DHT22;29884;47.450;19.124;2023-08-08T11:01:03;23.20;68.80
44215;DHT22;29884;47.450;19.124;2023-08-08T11:03:37;23.30;67.60
44215;DHT22;29884;47.450;19.124;2023-08-08T11:06:04;23.10;66.00
44215;DHT22;29884;47.450;19.124;2023-08-08T11:08:31;23.40;64.00
44215;DHT22;29884;47.450;19.124;2023-08-08T11:10:58;23.70;65.10
44215;DHT22;29884;47.450;19.124;2023-08-08T11:13:24;23.20;64.60
44215;DHT22;29884;47.450;19.124;2023-08-08T11:15:50;23.10;66.70
44215;DHT22;29884;47.450;19.124;2023-08-08T11:18:16;23.20;65.50
44215;DHT22;29884;47.450;19.124;2023-08-08T11:20:42;23.80;67.90
44215;DHT22;29884;47.450;19.124;2023-08-08T11:23:09;24.00;67.20
44215;DHT22;29884;47.450;19.124;2023-08-08T11:25:36;24.40;62.60
44215;DHT22;29884;47.450;19.124;2023-08-08T11:28:03;24.20;61.90
44215;DHT22;29884;47.450;19.124;2023-08-08T11:30:30;23.70;63.20
44215;DHT22;29884;47.450;19.124;2023-08-08T11:32:58;23.70;63.10
44215;DHT22;29884;47.450;19.124;2023-08-08T11:35:25;24.00;61.80
44215;DHT22;29884;47.450;19.124;2023-08-08T11:37:54;23.90;65.20
44215;DHT22;29884;47.450;19.124;2023-08-08T11:40:20;24.10;64.20
44215;DHT22;29884;47.450;19.124;2023-08-08T11:42:47;24.20;64.90
44215;DHT22;29884;47.450;19.124;2023-08-08T11:45:16;24.30;63.60
44215;DHT22;29884;47.450;19.124;2023-08-08T11:47:41;24.20;64.00
44215;DHT22;29884;47.450;19.124;2023-08-08T11:50:09;24.30;62.80
44215;DHT22;29884;47.450;19.124;2023-08-08T11:52:40;24.30;63.40
44215;DHT22;29884;47.450;19.124;2023-08-08T11:55:07;24.40;62.20
44215;DHT22;29884;47.450;19.124;2023-08-08T11:57:37;24.20;60.60
44215;DHT22;29884;47.450;19.124;2023-08-08T12:00:07;24.20;61.60
44215;DHT22;29884;47.450;19.124;2023-08-08T12:02:35;24.60;61.50
44215;DHT22;29884;47.450;19.124;2023-08-08T12:05:05;24.10;57.70
44215;DHT22;29884;47.450;19.124;2023-08-08T12:07:35;24.20;59.50
44215;DHT22;29884;47.450;19.124;2023-08-08T12:10:03;24.00;59.80
44215;DHT22;29884;47.450;19.124;2023-08-08T12:12:29;23.70;61.30
44215;DHT22;29884;47.450;19.124;2023-08-08T12:14:57;23.90;60.00
44215;DHT22;29884;47.450;19.124;2023-08-08T12:17:23;23.60;60.40
44215;DHT22;29884;47.450;19.124;2023-08-08T12:19:49;23.80;62.30
44215;DHT22;29884;47.450;19.124;2023-08-08T12:22:15;23.60;61.00
44215;DHT22;29884;47.450;19.124;2023-08-08T12:24:41;23.80;61.50
44215;DHT22;29884;47.450;19.124;2023-08-08T12:27:06;23.80;59.90
44215;DHT22;29884;47.450;19.124;2023-08-08T12:29:32;24.30;59.00
44215;DHT22;29884;47.450;19.124;2023-08-08T12:32:01;24.50;57.80
44215;DHT22;29884;47.450;19.124;2023-08-08T12:34:28;24.60;58.30
44215;DHT22;29884;47.450;19.124;2023-08-08T12:36:53;24.40;58.60
44215;DHT22;29884;47.450;19.124;2023-08-08T12:39:19;23.80;58.70
44215;DHT22;29884;47.450;19.124;2023-08-08T12:41:45;24.10;58.20
44215;DHT22;29884;47.450;19.124;2023-08-08T12:44:10;24.00;58.70
44215;DHT22;29884;47.450;19.124;2023-08-08T12:46:36;24.10;57.70
44215;DHT22;29884;47.450;19.124;2023-08-08T12:49:02;24.30;58.80
44215;DHT22;29884;47.450;19.124;2023-08-08T12:51:29;24.10;57.90
44215;DHT22;29884;47.450;19.124;2023-08-08T12:53:55;24.20;57.20
44215;DHT22;29884;47.450;19.124;2023-08-08T12:56:20;24.10;57.80
44215;DHT22;29884;47.450;19.124;2023-08-08T12:58:46;24.10;57.40
44215;DHT22;29884;47.450;19.124;2023-08-08T13:01:12;24.20;56.10
44215;DHT22;29884;47.450;19.124;2023-08-08T13:03:37;24.40;56.20
44215;DHT22;29884;47.450;19.124;2023-08-08T13:06:04;24.70;55.50
44215;DHT22;29884;47.450;19.124;2023-08-08T13:08:30;25.00;54.20
44215;DHT22;29884;47.450;19.124;2023-08-08T13:10:58;24.80;54.10
44215;DHT22;29884;47.450;19.124;2023-08-08T13:13:24;24.70;53.70
44215;DHT22;29884;47.450;19.124;2023-08-08T13:15:51;24.20;54.20
44215;DHT22;29884;47.450;19.124;2023-08-08T13:18:17;23.80;56.00
44215;DHT22;29884;47.450;19.124;2023-08-08T13:20:43;23.60;55.70
44215;DHT22;29884;47.450;19.124;2023-08-08T13:23:09;23.50;57.60
44215;DHT22;29884;47.450;19.124;2023-08-08T13:25:34;23.40;56.60
44215;DHT22;29884;47.450;19.124;2023-08-08T13:28:01;23.00;56.80
44215;DHT22;29884;47.450;19.124;2023-08-08T13:30:29;22.80;57.20
44215;DHT22;29884;47.450;19.124;2023-08-08T13:32:54;22.70;57.70
44215;DHT22;29884;47.450;19.124;2023-08-08T13:35:20;22.70;58.10
44215;DHT22;29884;47.450;19.124;2023-08-08T13:37:46;22.70;57.90
44215;DHT22;29884;47.450;19.124;2023-08-08T13:40:16;22.40;58.30
44215;DHT22;29884;47.450;19.124;2023-08-08T13:42:42;22.30;59.50
44215;DHT22;29884;47.450;19.124;2023-08-08T13:45:09;22.10;59.70
44215;DHT22;29884;47.450;19.124;2023-08-08T13:47:35;21.70;59.60
44215;DHT22;29884;47.450;19.124;2023-08-08T13:50:01;21.40;59.20
44215;DHT22;29884;47.450;19.124;2023-08-08T13:52:27;21.40;58.70
44215;DHT22;29884;47.450;19.124;2023-08-08T13:54:54;21.20;58.60
44215;DHT22;29884;47.450;19.124;2023-08-08T13:57:20;21.00;58.70
44215;DHT22;29884;47.450;19.124;2023-08-08T13:59:46;21.00;58.80
44215;DHT22;29884;47.450;19.124;2023-08-08T14:02:12;21.00;58.90
44215;DHT22;29884;47.450;19.124;2023-08-08T14:04:37;20.90;58.60
44215;DHT22;29884;47.450;19.124;2023-08-08T14:07:03;20.90;59.70
44215;DHT22;29884;47.450;19.124;2023-08-08T14:09:29;20.90;60.00
44215;DHT22;29884;47.450;19.124;2023-08-08T14:11:55;20.90;60.30
44215;DHT22;29884;47.450;19.124;2023-08-08T14:14:20;21.00;61.60
44215;DHT22;29884;47.450;19.124;2023-08-08T14:16:46;20.90;61.70
44215;DHT22;29884;47.450;19.124;2023-08-08T14:19:12;20.90;61.70
44215;DHT22;29884;47.450;19.124;2023-08-08T14:21:38;20.90;61.80
44215;DHT22;29884;47.450;19.124;2023-08-08T14:24:04;20.90;62.70
44215;DHT22;29884;47.450;19.124;2023-08-08T14:26:30;20.90;62.40
44215;DHT22;29884;47.450;19.124;2023-08-08T14:28:57;20.80;62.30
44215;DHT22;29884;47.450;19.124;2023-08-08T14:31:23;20.70;64.00
44215;DHT22;29884;47.450;19.124;2023-08-08T14:33:49;20.60;63.40
44215;DHT22;29884;47.450;19.124;2023-08-08T14:36:14;20.70;65.00
44215;DHT22;29884;47.450;19.124;2023-08-08T14:38:40;20.60;63.90
44215;DHT22;29884;47.450;19.124;2023-08-08T14:41:06;20.60;64.70
44215;DHT22;29884;47.450;19.124;2023-08-08T14:43:32;20.60;65.60
44215;DHT22;29884;47.450;19.124;2023-08-08T14:45:57;20.70;66.10
44215;DHT22;29884;47.450;19.124;2023-08-08T14:48:23;20.70;66.20
44215;DHT22;29884;47.450;19.124;2023-08-08T14:50:49;20.60;66.70
44215;DHT22;29884;47.450;19.124;2023-08-08T14:53:14;20.70;67.40
44215;DHT22;29884;47.450;19.124;2023-08-08T14:55:40;20.70;68.10
44215;DHT22;29884;47.450;19.124;2023-08-08T14:58:06;20.90;67.30
44215;DHT22;29884;47.450;19.124;2023-08-08T15:00:32;21.00;66.10
44215;DHT22;29884;47.450;19.124;2023-08-08T15:02:58;21.10;67.10
44215;DHT22;29884;47.450;19.124;2023-08-08T15:05:23;21.20;70.50
44215;DHT22;29884;47.450;19.124;2023-08-08T15:07:49;21.30;66.80
44215;DHT22;29884;47.450;19.124;2023-08-08T15:10:15;21.30;66.40
44215;DHT22;29884;47.450;19.124;2023-08-08T15:12:40;21.30;66.40